sensor_id;sensor_type;location;lat;lon;timestamp;temperature;humidity
52963;DHT22;38827;53.024;6.596;2022-12-29T00:01:33;10.40;87.90
52963;DHT22;38827;53.024;6.596;2022-12-29T00:03:59;10.50;87.90
52963;DHT22;38827;53.024;6.596;2022-12-29T00:06:25;10.50;88.00
52963;DHT22;38827;53.024;6.596;2022-12-29T00:08:51;10.50;88.10
52963;DHT22;38827;53.024;6.596;2022-12-29T00:11:22;10.50;88.30
52963;DHT22;38827;53.024;6.596;2022-12-29T00:13:49;10.40;88.40
52963;DHT22;38827;53.024;6.596;2022-12-29T00:16:34;10.40;88.50
52963;DHT22;38827;53.024;6.596;2022-12-29T00:19:00;10.40;88.60
52963;DHT22;38827;53.024;6.596;2022-12-29T00:21:27;10.40;88.90
52963;DHT22;38827;53.024;6.596;2022-12-29T00:24:19;10.40;89.10
52963;DHT22;38827;53.024;6.596;2022-12-29T00:27:09;10.40;89.20
52963;DHT22;38827;53.024;6.596;2022-12-29T00:29:54;10.30;89.30
52963;DHT22;38827;53.024;6.596;2022-12-29T00:32:41;10.30;89.60
52963;DHT22;38827;53.024;6.596;2022-12-29T00:35:33;10.30;89.50
52963;DHT22;38827;53.024;6.596;2022-12-29T00:38:04;10.40;89.50
52963;DHT22;38827;53.024;6.596;2022-12-29T00:40:49;10.40;89.40
52963;DHT22;38827;53.024;6.596;2022-12-29T00:43:33;10.40;89.40
52963;DHT22;38827;53.024;6.596;2022-12-29T00:46:18;10.40;89.30
52963;DHT22;38827;53.024;6.596;2022-12-29T00:48:49;10.40;89.20
52963;DHT22;38827;53.024;6.596;2022-12-29T00:51:33;10.50;89.10
52963;DHT22;38827;53.024;6.596;2022-12-29T00:53:59;10.40;88.90
52963;DHT22;38827;53.024;6.596;2022-12-29T00:56:24;10.50;88.90
52963;DHT22;38827;53.024;6.596;2022-12-29T00:58:50;10.50;88.90
52963;DHT22;38827;53.024;6.596;2022-12-29T01:01:16;10.50;88.80
52963;DHT22;38827;53.024;6.596;2022-12-29T01:03:42;10.50;88.90
52963;DHT22;38827;53.024;6.596;2022-12-29T01:06:09;10.50;88.80
52963;DHT22;38827;53.024;6.596;2022-12-29T01:08:35;10.50;88.70
52963;DHT22;38827;53.024;6.596;2022-12-29T01:11:11;10.60;88.70
52963;DHT22;38827;53.024;6.596;2022-12-29T01:13:38;10.60;88.60
52963;DHT22;38827;53.024;6.596;2022-12-29T01:16:05;10.60;88.70
52963;DHT22;38827;53.024;6.596;2022-12-29T01:18:31;10.60;88.60
52963;DHT22;38827;53.024;6.596;2022-12-29T01:21:01;10.60;88.50
52963;DHT22;38827;53.024;6.596;2022-12-29T01:23:28;10.60;88.50
52963;DHT22;38827;53.024;6.596;2022-12-29T01:25:54;10.60;88.50
52963;DHT22;38827;53.024;6.596;2022-12-29T01:28:20;10.60;88.20
52963;DHT22;38827;53.024;6.596;2022-12-29T01:30:45;10.60;88.20
52963;DHT22;38827;53.024;6.596;2022-12-29T01:33:11;10.60;88.10
52963;DHT22;38827;53.024;6.596;2022-12-29T01:35:37;10.70;88.10
52963;DHT22;38827;53.024;6.596;2022-12-29T01:38:02;10.70;88.10
52963;DHT22;38827;53.024;6.596;2022-12-29T01:40:28;10.70;87.90
52963;DHT22;38827;53.024;6.596;2022-12-29T01:45:37;10.70;87.70
52963;DHT22;38827;53.024;6.596;2022-12-29T01:48:22;10.70;87.60
52963;DHT22;38827;53.024;6.596;2022-12-29T01:53:36;10.70;87.40
52963;DHT22;38827;53.024;6.596;2022-12-29T01:56:07;10.70;87.20
52963;DHT22;38827;53.024;6.596;2022-12-29T01:58:39;10.70;87.20
52963;DHT22;38827;53.024;6.596;2022-12-29T02:01:07;10.70;87.10
52963;DHT22;38827;53.024;6.596;2022-12-29T02:03:34;10.80;86.90
52963;DHT22;38827;53.024;6.596;2022-12-29T02:06:21;10.80;86.50
52963;DHT22;38827;53.024;6.596;2022-12-29T02:08:50;10.80;86.40
52963;DHT22;38827;53.024;6.596;2022-12-29T02:11:16;10.80;86.50
52963;DHT22;38827;53.024;6.596;2022-12-29T02:13:42;10.80;86.40
52963;DHT22;38827;53.024;6.596;2022-12-29T02:46:17;10.90;86.10
52963;DHT22;38827;53.024;6.596;2022-12-29T02:52:07;10.80;86.20
52963;DHT22;38827;53.024;6.596;2022-12-29T02:54:35;10.80;86.30
52963;DHT22;38827;53.024;6.596;2022-12-29T03:11:00;10.80;86.20
52963;DHT22;38827;53.024;6.596;2022-12-29T03:13:47;10.80;86.10
52963;DHT22;38827;53.024;6.596;2022-12-29T03:17:08;10.90;85.60
52963;DHT22;38827;53.024;6.596;2022-12-29T03:19:49;10.90;85.20
52963;DHT22;38827;53.024;6.596;2022-12-29T03:22:26;10.90;85.30
52963;DHT22;38827;53.024;6.596;2022-12-29T03:25:09;10.90;85.30
52963;DHT22;38827;53.024;6.596;2022-12-29T03:27:42;10.90;85.20
52963;DHT22;38827;53.024;6.596;2022-12-29T03:30:10;10.90;85.20
52963;DHT22;38827;53.024;6.596;2022-12-29T03:32:46;10.90;85.00
52963;DHT22;38827;53.024;6.596;2022-12-29T03:35:14;10.90;85.10
52963;DHT22;38827;53.024;6.596;2022-12-29T03:40:33;10.80;85.00
52963;DHT22;38827;53.024;6.596;2022-12-29T03:43:00;10.80;85.00
52963;DHT22;38827;53.024;6.596;2022-12-29T03:45:27;10.80;84.90
52963;DHT22;38827;53.024;6.596;2022-12-29T03:47:53;10.80;84.80
52963;DHT22;38827;53.024;6.596;2022-12-29T03:50:19;10.70;84.80
52963;DHT22;38827;53.024;6.596;2022-12-29T03:52:45;10.70;84.70
52963;DHT22;38827;53.024;6.596;2022-12-29T03:55:10;10.70;84.50
52963;DHT22;38827;53.024;6.596;2022-12-29T03:57:36;10.80;84.40
52963;DHT22;38827;53.024;6.596;2022-12-29T04:00:04;10.80;84.30
52963;DHT22;38827;53.024;6.596;2022-12-29T04:02:30;10.70;84.40
52963;DHT22;38827;53.024;6.596;2022-12-29T04:04:56;10.80;84.40
52963;DHT22;38827;53.024;6.596;2022-12-29T04:07:22;10.70;84.30
52963;DHT22;38827;53.024;6.596;2022-12-29T04:09:47;10.70;84.20
52963;DHT22;38827;53.024;6.596;2022-12-29T04:12:13;10.70;84.10
52963;DHT22;38827;53.024;6.596;2022-12-29T04:14:40;10.70;83.80
52963;DHT22;38827;53.024;6.596;2022-12-29T04:17:05;10.70;83.80
52963;DHT22;38827;53.024;6.596;2022-12-29T04:19:31;10.70;83.50
52963;DHT22;38827;53.024;6.596;2022-12-29T04:21:57;10.70;83.50
52963;DHT22;38827;53.024;6.596;2022-12-29T04:24:22;10.70;83.30
52963;DHT22;38827;53.024;6.596;2022-12-29T04:26:48;10.70;83.30
52963;DHT22;38827;53.024;6.596;2022-12-29T04:29:14;10.70;83.10
52963;DHT22;38827;53.024;6.596;2022-12-29T04:31:42;10.70;83.10
52963;DHT22;38827;53.024;6.596;2022-12-29T04:34:08;10.70;83.10
52963;DHT22;38827;53.024;6.596;2022-12-29T04:36:34;10.70;82.70
52963;DHT22;38827;53.024;6.596;2022-12-29T04:38:59;10.60;82.40
52963;DHT22;38827;53.024;6.596;2022-12-29T04:41:25;10.60;82.30
52963;DHT22;38827;53.024;6.596;2022-12-29T04:43:51;10.60;82.20
52963;DHT22;38827;53.024;6.596;2022-12-29T04:52:40;10.50;82.20
52963;DHT22;38827;53.024;6.596;2022-12-29T04:55:06;10.40;82.40
52963;DHT22;38827;53.024;6.596;2022-12-29T04:57:32;10.40;82.60
52963;DHT22;38827;53.024;6.596;2022-12-29T04:59:57;10.40;82.80
52963;DHT22;38827;53.024;6.596;2022-12-29T05:02:23;10.30;82.80
52963;DHT22;38827;53.024;6.596;2022-12-29T05:04:49;10.30;83.00
52963;DHT22;38827;53.024;6.596;2022-12-29T05:07:15;10.20;82.90
52963;DHT22;38827;53.024;6.596;2022-12-29T05:09:42;10.20;82.80
52963;DHT22;38827;53.024;6.596;2022-12-29T05:12:07;10.20;82.80
52963;DHT22;38827;53.024;6.596;2022-12-29T05:14:33;10.10;82.80
52963;DHT22;38827;53.024;6.596;2022-12-29T05:16:59;10.10;82.40
52963;DHT22;38827;53.024;6.596;2022-12-29T05:19:24;10.10;82.50
52963;DHT22;38827;53.024;6.596;2022-12-29T05:21:50;10.10;82.40
52963;DHT22;38827;53.024;6.596;2022-12-29T05:24:15;10.00;82.50
52963;DHT22;38827;53.024;6.596;2022-12-29T05:26:41;10.00;82.50
52963;DHT22;38827;53.024;6.596;2022-12-29T05:29:07;10.00;82.40
52963;DHT22;38827;53.024;6.596;2022-12-29T05:31:36;10.00;82.50
52963;DHT22;38827;53.024;6.596;2022-12-29T05:34:02;10.00;82.40
52963;DHT22;38827;53.024;6.596;2022-12-29T05:36:27;9.90;82.50
52963;DHT22;38827;53.024;6.596;2022-12-29T05:38:53;9.90;82.40
52963;DHT22;38827;53.024;6.596;2022-12-29T05:41:19;9.90;82.40
52963;DHT22;38827;53.024;6.596;2022-12-29T05:43:45;9.90;82.30
52963;DHT22;38827;53.024;6.596;2022-12-29T05:46:10;9.90;82.30
52963;DHT22;38827;53.024;6.596;2022-12-29T05:48:36;9.90;82.30
52963;DHT22;38827;53.024;6.596;2022-12-29T05:51:01;9.90;82.30
52963;DHT22;38827;53.024;6.596;2022-12-29T05:53:27;9.80;82.30
52963;DHT22;38827;53.024;6.596;2022-12-29T05:55:53;9.80;82.40
52963;DHT22;38827;53.024;6.596;2022-12-29T05:58:18;9.80;82.50
52963;DHT22;38827;53.024;6.596;2022-12-29T06:00:44;9.80;82.50
52963;DHT22;38827;53.024;6.596;2022-12-29T06:03:14;9.70;82.50
52963;DHT22;38827;53.024;6.596;2022-12-29T06:05:40;9.70;82.50
52963;DHT22;38827;53.024;6.596;2022-12-29T06:08:05;9.70;82.20
52963;DHT22;38827;53.024;6.596;2022-12-29T06:10:31;9.80;82.30
52963;DHT22;38827;53.024;6.596;2022-12-29T06:12:57;9.70;82.10
52963;DHT22;38827;53.024;6.596;2022-12-29T06:15:22;9.70;82.00
52963;DHT22;38827;53.024;6.596;2022-12-29T06:17:48;9.70;81.80
52963;DHT22;38827;53.024;6.596;2022-12-29T06:20:13;9.70;81.60
52963;DHT22;38827;53.024;6.596;2022-12-29T06:22:39;9.70;81.50
52963;DHT22;38827;53.024;6.596;2022-12-29T06:25:05;9.70;81.40
52963;DHT22;38827;53.024;6.596;2022-12-29T06:27:31;9.70;81.30
52963;DHT22;38827;53.024;6.596;2022-12-29T06:29:57;9.70;81.10
52963;DHT22;38827;53.024;6.596;2022-12-29T06:32:23;9.70;80.70
52963;DHT22;38827;53.024;6.596;2022-12-29T06:34:48;9.80;80.50
52963;DHT22;38827;53.024;6.596;2022-12-29T06:37:14;9.80;80.40
52963;DHT22;38827;53.024;6.596;2022-12-29T06:39:40;9.80;80.20
52963;DHT22;38827;53.024;6.596;2022-12-29T06:42:07;9.80;79.90
52963;DHT22;38827;53.024;6.596;2022-12-29T06:44:34;9.80;79.90
52963;DHT22;38827;53.024;6.596;2022-12-29T06:46:59;9.70;79.80
52963;DHT22;38827;53.024;6.596;2022-12-29T06:49:25;9.70;79.80
52963;DHT22;38827;53.024;6.596;2022-12-29T06:51:51;9.70;79.60
52963;DHT22;38827;53.024;6.596;2022-12-29T06:54:16;9.70;79.70
52963;DHT22;38827;53.024;6.596;2022-12-29T06:56:42;9.70;79.60
52963;DHT22;38827;53.024;6.596;2022-12-29T06:59:09;9.70;79.60
52963;DHT22;38827;53.024;6.596;2022-12-29T07:01:34;9.70;79.30
52963;DHT22;38827;53.024;6.596;2022-12-29T07:04:01;9.80;79.20
52963;DHT22;38827;53.024;6.596;2022-12-29T07:06:27;9.80;79.10
52963;DHT22;38827;53.024;6.596;2022-12-29T07:08:53;9.80;79.20
52963;DHT22;38827;53.024;6.596;2022-12-29T07:11:21;9.80;78.90
52963;DHT22;38827;53.024;6.596;2022-12-29T07:13:47;9.80;78.70
52963;DHT22;38827;53.024;6.596;2022-12-29T07:16:12;9.80;78.70
52963;DHT22;38827;53.024;6.596;2022-12-29T07:18:38;9.80;78.60
52963;DHT22;38827;53.024;6.596;2022-12-29T07:21:04;9.80;78.40
52963;DHT22;38827;53.024;6.596;2022-12-29T07:23:30;9.80;78.30
52963;DHT22;38827;53.024;6.596;2022-12-29T07:26:04;9.80;78.60
52963;DHT22;38827;53.024;6.596;2022-12-29T07:28:30;9.80;78.50
52963;DHT22;38827;53.024;6.596;2022-12-29T07:30:56;9.80;78.50
52963;DHT22;38827;53.024;6.596;2022-12-29T07:33:22;9.90;78.60
52963;DHT22;38827;53.024;6.596;2022-12-29T07:35:47;9.90;78.60
52963;DHT22;38827;53.024;6.596;2022-12-29T07:38:14;9.90;78.60
52963;DHT22;38827;53.024;6.596;2022-12-29T07:40:40;9.90;78.60
52963;DHT22;38827;53.024;6.596;2022-12-29T07:43:06;9.90;78.30
52963;DHT22;38827;53.024;6.596;2022-12-29T07:45:35;10.00;78.40
52963;DHT22;38827;53.024;6.596;2022-12-29T07:48:00;10.00;78.40
52963;DHT22;38827;53.024;6.596;2022-12-29T07:50:28;10.00;78.40
52963;DHT22;38827;53.024;6.596;2022-12-29T07:55:56;10.00;78.20
52963;DHT22;38827;53.024;6.596;2022-12-29T07:58:21;10.00;78.30
52963;DHT22;38827;53.024;6.596;2022-12-29T08:00:47;10.00;78.20
52963;DHT22;38827;53.024;6.596;2022-12-29T08:03:12;10.00;78.30
52963;DHT22;38827;53.024;6.596;2022-12-29T08:05:38;10.00;78.10
52963;DHT22;38827;53.024;6.596;2022-12-29T08:08:04;10.00;78.00
52963;DHT22;38827;53.024;6.596;2022-12-29T08:10:29;9.90;78.00
52963;DHT22;38827;53.024;6.596;2022-12-29T08:12:55;10.00;77.90
52963;DHT22;38827;53.024;6.596;2022-12-29T08:15:21;9.90;77.80
52963;DHT22;38827;53.024;6.596;2022-12-29T08:17:48;9.90;77.80
52963;DHT22;38827;53.024;6.596;2022-12-29T08:20:14;10.00;77.20
52963;DHT22;38827;53.024;6.596;2022-12-29T08:22:40;9.90;75.80
52963;DHT22;38827;53.024;6.596;2022-12-29T08:25:06;9.90;77.20
52963;DHT22;38827;53.024;6.596;2022-12-29T08:27:31;10.00;76.90
52963;DHT22;38827;53.024;6.596;2022-12-29T08:29:57;10.00;76.60
52963;DHT22;38827;53.024;6.596;2022-12-29T08:32:22;10.00;76.40
52963;DHT22;38827;53.024;6.596;2022-12-29T08:34:48;10.00;76.10
52963;DHT22;38827;53.024;6.596;2022-12-29T08:37:14;10.00;76.20
52963;DHT22;38827;53.024;6.596;2022-12-29T08:39:39;10.00;76.10
52963;DHT22;38827;53.024;6.596;2022-12-29T08:42:05;10.00;76.10
52963;DHT22;38827;53.024;6.596;2022-12-29T08:44:32;10.00;76.10
52963;DHT22;38827;53.024;6.596;2022-12-29T08:46:57;10.00;76.10
52963;DHT22;38827;53.024;6.596;2022-12-29T08:49:27;10.00;76.20
52963;DHT22;38827;53.024;6.596;2022-12-29T08:51:52;10.00;76.10
52963;DHT22;38827;53.024;6.596;2022-12-29T08:54:19;10.10;76.20
52963;DHT22;38827;53.024;6.596;2022-12-29T08:56:45;10.00;76.20
52963;DHT22;38827;53.024;6.596;2022-12-29T08:59:23;10.10;75.90
52963;DHT22;38827;53.024;6.596;2022-12-29T09:01:48;10.10;75.70
52963;DHT22;38827;53.024;6.596;2022-12-29T09:04:14;10.10;75.90
52963;DHT22;38827;53.024;6.596;2022-12-29T09:06:40;10.10;76.00
52963;DHT22;38827;53.024;6.596;2022-12-29T09:09:06;10.10;75.90
52963;DHT22;38827;53.024;6.596;2022-12-29T09:11:31;10.10;76.10
52963;DHT22;38827;53.024;6.596;2022-12-29T09:13:57;10.00;76.10
52963;DHT22;38827;53.024;6.596;2022-12-29T09:16:24;10.00;76.40
52963;DHT22;38827;53.024;6.596;2022-12-29T09:24:47;9.90;78.00
52963;DHT22;38827;53.024;6.596;2022-12-29T09:27:13;9.80;78.00
52963;DHT22;38827;53.024;6.596;2022-12-29T09:29:39;9.80;78.30
52963;DHT22;38827;53.024;6.596;2022-12-29T09:32:04;9.80;78.50
52963;DHT22;38827;53.024;6.596;2022-12-29T09:34:30;9.80;78.80
52963;DHT22;38827;53.024;6.596;2022-12-29T09:36:55;9.70;78.80
52963;DHT22;38827;53.024;6.596;2022-12-29T09:39:22;9.70;78.80
52963;DHT22;38827;53.024;6.596;2022-12-29T09:42:03;9.80;78.80
52963;DHT22;38827;53.024;6.596;2022-12-29T09:47:25;9.80;78.40
52963;DHT22;38827;53.024;6.596;2022-12-29T09:52:40;9.80;78.50
52963;DHT22;38827;53.024;6.596;2022-12-29T09:55:23;9.90;78.50
52963;DHT22;38827;53.024;6.596;2022-12-29T09:57:58;10.00;78.10
52963;DHT22;38827;53.024;6.596;2022-12-29T10:00:37;10.00;78.50
52963;DHT22;38827;53.024;6.596;2022-12-29T10:03:15;9.90;79.10
52963;DHT22;38827;53.024;6.596;2022-12-29T10:11:01;9.70;80.10
52963;DHT22;38827;53.024;6.596;2022-12-29T10:13:59;9.60;80.60
52963;DHT22;38827;53.024;6.596;2022-12-29T10:42:41;9.30;83.60
52963;DHT22;38827;53.024;6.596;2022-12-29T10:48:33;9.20;84.00
52963;DHT22;38827;53.024;6.596;2022-12-29T10:56:39;9.30;84.30
52963;DHT22;38827;53.024;6.596;2022-12-29T10:59:21;9.20;84.40
52963;DHT22;38827;53.024;6.596;2022-12-29T11:05:16;9.20;84.70
52963;DHT22;38827;53.024;6.596;2022-12-29T11:07:47;9.20;84.70
52963;DHT22;38827;53.024;6.596;2022-12-29T11:10:21;9.20;84.80
52963;DHT22;38827;53.024;6.596;2022-12-29T11:13:00;9.20;84.80
52963;DHT22;38827;53.024;6.596;2022-12-29T11:15:26;9.20;84.90
52963;DHT22;38827;53.024;6.596;2022-12-29T11:17:57;9.20;85.00
52963;DHT22;38827;53.024;6.596;2022-12-29T11:22:54;9.20;85.10
52963;DHT22;38827;53.024;6.596;2022-12-29T11:25:20;9.20;85.10
52963;DHT22;38827;53.024;6.596;2022-12-29T11:28:18;9.20;85.00
52963;DHT22;38827;53.024;6.596;2022-12-29T11:30:44;9.20;84.60
52963;DHT22;38827;53.024;6.596;2022-12-29T11:33:09;9.20;84.90
52963;DHT22;38827;53.024;6.596;2022-12-29T11:35:41;9.20;84.80
52963;DHT22;38827;53.024;6.596;2022-12-29T11:38:22;9.20;84.70
52963;DHT22;38827;53.024;6.596;2022-12-29T11:40:49;9.20;84.80
52963;DHT22;38827;53.024;6.596;2022-12-29T11:43:27;9.30;84.70
52963;DHT22;38827;53.024;6.596;2022-12-29T11:45:54;9.30;84.40
52963;DHT22;38827;53.024;6.596;2022-12-29T11:48:21;9.30;84.20
52963;DHT22;38827;53.024;6.596;2022-12-29T11:50:53;9.30;84.00
52963;DHT22;38827;53.024;6.596;2022-12-29T11:53:24;9.30;84.30
52963;DHT22;38827;53.024;6.596;2022-12-29T11:55:53;9.30;84.20
52963;DHT22;38827;53.024;6.596;2022-12-29T11:58:19;9.40;84.20
52963;DHT22;38827;53.024;6.596;2022-12-29T12:00:46;9.50;83.90
52963;DHT22;38827;53.024;6.596;2022-12-29T12:03:23;9.70;83.60
52963;DHT22;38827;53.024;6.596;2022-12-29T12:06:01;9.80;83.50
52963;DHT22;38827;53.024;6.596;2022-12-29T12:08:35;9.90;83.10
52963;DHT22;38827;53.024;6.596;2022-12-29T12:16:26;10.10;82.00
52963;DHT22;38827;53.024;6.596;2022-12-29T12:24:56;10.00;80.80
52963;DHT22;38827;53.024;6.596;2022-12-29T12:27:38;10.00;81.60
52963;DHT22;38827;53.024;6.596;2022-12-29T12:30:22;10.10;81.40
52963;DHT22;38827;53.024;6.596;2022-12-29T12:32:56;10.10;80.80
52963;DHT22;38827;53.024;6.596;2022-12-29T12:35:37;10.10;81.00
52963;DHT22;38827;53.024;6.596;2022-12-29T12:41:09;10.00;80.90
52963;DHT22;38827;53.024;6.596;2022-12-29T12:43:40;10.00;80.70
52963;DHT22;38827;53.024;6.596;2022-12-29T12:46:50;10.00;80.90
52963;DHT22;38827;53.024;6.596;2022-12-29T13:17:23;10.10;78.10
52963;DHT22;38827;53.024;6.596;2022-12-29T13:28:27;10.20;76.80
52963;DHT22;38827;53.024;6.596;2022-12-29T13:31:15;10.20;76.70
52963;DHT22;38827;53.024;6.596;2022-12-29T13:36:52;10.20;76.20
52963;DHT22;38827;53.024;6.596;2022-12-29T13:39:35;10.20;76.80
52963;DHT22;38827;53.024;6.596;2022-12-29T13:42:04;10.20;76.50
52963;DHT22;38827;53.024;6.596;2022-12-29T13:44:53;10.20;76.40
52963;DHT22;38827;53.024;6.596;2022-12-29T13:50:59;10.20;75.40
52963;DHT22;38827;53.024;6.596;2022-12-29T13:59:56;10.20;74.80
52963;DHT22;38827;53.024;6.596;2022-12-29T14:09:47;10.20;75.10
52963;DHT22;38827;53.024;6.596;2022-12-29T14:12:37;10.10;75.40
52963;DHT22;38827;53.024;6.596;2022-12-29T14:17:34;9.90;76.30
52963;DHT22;38827;53.024;6.596;2022-12-29T14:20:00;9.80;76.50
52963;DHT22;38827;53.024;6.596;2022-12-29T14:22:28;9.80;76.70
52963;DHT22;38827;53.024;6.596;2022-12-29T14:24:54;9.70;76.80
52963;DHT22;38827;53.024;6.596;2022-12-29T14:29:48;9.60;77.10
52963;DHT22;38827;53.024;6.596;2022-12-29T14:38:31;9.50;77.10
52963;DHT22;38827;53.024;6.596;2022-12-29T14:44:18;9.50;77.00
52963;DHT22;38827;53.024;6.596;2022-12-29T14:47:34;9.40;77.20
52963;DHT22;38827;53.024;6.596;2022-12-29T14:52:55;9.40;77.40
52963;DHT22;38827;53.024;6.596;2022-12-29T14:59:45;9.30;77.50
52963;DHT22;38827;53.024;6.596;2022-12-29T15:02:22;9.20;77.70
52963;DHT22;38827;53.024;6.596;2022-12-29T15:18:42;9.00;77.50
52963;DHT22;38827;53.024;6.596;2022-12-29T15:21:15;8.90;77.90
52963;DHT22;38827;53.024;6.596;2022-12-29T15:27:34;8.90;77.80
52963;DHT22;38827;53.024;6.596;2022-12-29T15:37:57;8.80;78.30
52963;DHT22;38827;53.024;6.596;2022-12-29T15:41:43;8.80;78.60
52963;DHT22;38827;53.024;6.596;2022-12-29T16:05:14;8.60;79.40
52963;DHT22;38827;53.024;6.596;2022-12-29T16:07:55;8.60;79.70
52963;DHT22;38827;53.024;6.596;2022-12-29T16:10:38;8.70;79.70
52963;DHT22;38827;53.024;6.596;2022-12-29T16:16:21;8.70;79.70
52963;DHT22;38827;53.024;6.596;2022-12-29T16:19:28;8.70;79.80
52963;DHT22;38827;53.024;6.596;2022-12-29T16:22:56;8.70;79.80
52963;DHT22;38827;53.024;6.596;2022-12-29T16:31:18;8.80;80.20
52963;DHT22;38827;53.024;6.596;2022-12-29T16:33:53;8.80;80.10
52963;DHT22;38827;53.024;6.596;2022-12-29T16:36:28;8.90;80.10
52963;DHT22;38827;53.024;6.596;2022-12-29T16:39:18;8.90;80.20
52963;DHT22;38827;53.024;6.596;2022-12-29T16:41:50;8.90;80.30
52963;DHT22;38827;53.024;6.596;2022-12-29T16:44:27;8.90;80.60
52963;DHT22;38827;53.024;6.596;2022-12-29T16:49:39;8.90;81.30
52963;DHT22;38827;53.024;6.596;2022-12-29T16:52:13;8.80;81.40
52963;DHT22;38827;53.024;6.596;2022-12-29T16:55:14;8.80;81.50
52963;DHT22;38827;53.024;6.596;2022-12-29T16:57:36;8.80;81.60
52963;DHT22;38827;53.024;6.596;2022-12-29T17:00:07;8.70;81.40
52963;DHT22;38827;53.024;6.596;2022-12-29T17:02:42;8.70;81.30
52963;DHT22;38827;53.024;6.596;2022-12-29T17:05:16;8.60;81.20
52963;DHT22;38827;53.024;6.596;2022-12-29T17:07:43;8.60;81.30
52963;DHT22;38827;53.024;6.596;2022-12-29T17:10:09;8.60;81.30
52963;DHT22;38827;53.024;6.596;2022-12-29T17:12:36;8.50;81.20
52963;DHT22;38827;53.024;6.596;2022-12-29T17:15:07;8.50;81.10
52963;DHT22;38827;53.024;6.596;2022-12-29T17:17:48;8.40;80.60
52963;DHT22;38827;53.024;6.596;2022-12-29T17:20:23;8.40;80.50
52963;DHT22;38827;53.024;6.596;2022-12-29T17:22:52;8.30;80.50
52963;DHT22;38827;53.024;6.596;2022-12-29T17:25:26;8.30;80.60
52963;DHT22;38827;53.024;6.596;2022-12-29T17:27:59;8.30;80.60
52963;DHT22;38827;53.024;6.596;2022-12-29T17:30:27;8.30;80.60
52963;DHT22;38827;53.024;6.596;2022-12-29T17:33:02;8.20;80.80
52963;DHT22;38827;53.024;6.596;2022-12-29T17:35:28;8.20;80.90
52963;DHT22;38827;53.024;6.596;2022-12-29T17:37:54;8.10;81.20
52963;DHT22;38827;53.024;6.596;2022-12-29T17:40:23;8.10;81.40
52963;DHT22;38827;53.024;6.596;2022-12-29T17:42:51;8.00;81.60
52963;DHT22;38827;53.024;6.596;2022-12-29T17:45:22;8.00;81.80
52963;DHT22;38827;53.024;6.596;2022-12-29T17:47:48;8.00;82.00
52963;DHT22;38827;53.024;6.596;2022-12-29T17:50:16;8.00;82.10
52963;DHT22;38827;53.024;6.596;2022-12-29T17:52:53;7.90;82.20
52963;DHT22;38827;53.024;6.596;2022-12-29T17:55:22;7.90;82.20
52963;DHT22;38827;53.024;6.596;2022-12-29T17:57:47;7.90;82.40
52963;DHT22;38827;53.024;6.596;2022-12-29T18:00:19;7.80;82.60
52963;DHT22;38827;53.024;6.596;2022-12-29T18:02:46;7.80;82.90
52963;DHT22;38827;53.024;6.596;2022-12-29T18:05:22;7.80;83.00
52963;DHT22;38827;53.024;6.596;2022-12-29T18:07:50;7.80;83.30
52963;DHT22;38827;53.024;6.596;2022-12-29T18:10:16;7.80;83.50
52963;DHT22;38827;53.024;6.596;2022-12-29T18:12:47;7.70;83.70
52963;DHT22;38827;53.024;6.596;2022-12-29T18:20:41;7.70;84.50
52963;DHT22;38827;53.024;6.596;2022-12-29T18:23:30;7.80;84.80
52963;DHT22;38827;53.024;6.596;2022-12-29T18:26:30;7.80;84.70
52963;DHT22;38827;53.024;6.596;2022-12-29T18:28:57;7.90;85.10
52963;DHT22;38827;53.024;6.596;2022-12-29T18:31:25;7.90;85.40
52963;DHT22;38827;53.024;6.596;2022-12-29T18:33:52;7.90;85.10
52963;DHT22;38827;53.024;6.596;2022-12-29T18:36:19;7.90;84.80
52963;DHT22;38827;53.024;6.596;2022-12-29T18:38:45;7.90;84.90
52963;DHT22;38827;53.024;6.596;2022-12-29T18:41:21;7.90;85.20
52963;DHT22;38827;53.024;6.596;2022-12-29T18:43:47;7.90;85.30
52963;DHT22;38827;53.024;6.596;2022-12-29T18:46:13;7.90;85.80
52963;DHT22;38827;53.024;6.596;2022-12-29T18:48:39;8.00;85.90
52963;DHT22;38827;53.024;6.596;2022-12-29T18:51:06;8.00;85.80
52963;DHT22;38827;53.024;6.596;2022-12-29T18:53:32;8.00;85.80
52963;DHT22;38827;53.024;6.596;2022-12-29T18:56:01;8.00;85.80
52963;DHT22;38827;53.024;6.596;2022-12-29T18:58:27;8.00;85.80
52963;DHT22;38827;53.024;6.596;2022-12-29T19:00:53;8.00;85.80
52963;DHT22;38827;53.024;6.596;2022-12-29T19:03:24;8.00;85.80
52963;DHT22;38827;53.024;6.596;2022-12-29T19:05:49;8.00;85.70
52963;DHT22;38827;53.024;6.596;2022-12-29T19:08:15;8.00;85.80
52963;DHT22;38827;53.024;6.596;2022-12-29T19:10:42;8.10;85.70
52963;DHT22;38827;53.024;6.596;2022-12-29T19:13:20;8.10;85.80
52963;DHT22;38827;53.024;6.596;2022-12-29T19:15:48;8.20;85.60
52963;DHT22;38827;53.024;6.596;2022-12-29T19:18:17;8.20;85.50
52963;DHT22;38827;53.024;6.596;2022-12-29T19:20:45;8.20;85.30
52963;DHT22;38827;53.024;6.596;2022-12-29T19:23:12;8.20;85.20
52963;DHT22;38827;53.024;6.596;2022-12-29T19:25:38;8.10;84.90
52963;DHT22;38827;53.024;6.596;2022-12-29T19:28:06;8.10;85.20
52963;DHT22;38827;53.024;6.596;2022-12-29T19:30:34;8.10;85.10
52963;DHT22;38827;53.024;6.596;2022-12-29T19:33:04;8.10;84.90
52963;DHT22;38827;53.024;6.596;2022-12-29T19:35:29;8.10;84.80
52963;DHT22;38827;53.024;6.596;2022-12-29T19:37:55;8.10;84.70
52963;DHT22;38827;53.024;6.596;2022-12-29T19:40:24;8.10;84.60
52963;DHT22;38827;53.024;6.596;2022-12-29T19:42:50;8.10;84.60
52963;DHT22;38827;53.024;6.596;2022-12-29T19:45:16;8.10;84.60
52963;DHT22;38827;53.024;6.596;2022-12-29T19:47:42;8.00;84.70
52963;DHT22;38827;53.024;6.596;2022-12-29T19:50:11;8.00;85.00
52963;DHT22;38827;53.024;6.596;2022-12-29T19:52:37;8.00;85.20
52963;DHT22;38827;53.024;6.596;2022-12-29T19:55:03;8.00;85.20
52963;DHT22;38827;53.024;6.596;2022-12-29T19:57:29;7.90;85.20
52963;DHT22;38827;53.024;6.596;2022-12-29T19:59:55;7.90;85.20
52963;DHT22;38827;53.024;6.596;2022-12-29T20:02:30;7.90;85.20
52963;DHT22;38827;53.024;6.596;2022-12-29T20:04:56;7.80;85.20
52963;DHT22;38827;53.024;6.596;2022-12-29T20:07:22;7.80;85.20
52963;DHT22;38827;53.024;6.596;2022-12-29T20:09:48;7.80;85.30
52963;DHT22;38827;53.024;6.596;2022-12-29T20:12:15;7.70;85.20
52963;DHT22;38827;53.024;6.596;2022-12-29T20:14:42;7.70;85.30
52963;DHT22;38827;53.024;6.596;2022-12-29T20:17:10;7.70;85.10
52963;DHT22;38827;53.024;6.596;2022-12-29T20:19:37;7.70;85.20
52963;DHT22;38827;53.024;6.596;2022-12-29T20:22:04;7.60;85.20
52963;DHT22;38827;53.024;6.596;2022-12-29T20:24:31;7.60;85.20
52963;DHT22;38827;53.024;6.596;2022-12-29T20:26:57;7.60;85.30
52963;DHT22;38827;53.024;6.596;2022-12-29T20:29:23;7.60;85.10
52963;DHT22;38827;53.024;6.596;2022-12-29T20:31:49;7.60;85.10
52963;DHT22;38827;53.024;6.596;2022-12-29T20:34:15;7.60;85.10
52963;DHT22;38827;53.024;6.596;2022-12-29T20:36:43;7.60;85.00
52963;DHT22;38827;53.024;6.596;2022-12-29T20:39:16;7.60;85.10